createdAt,value
2018-03-23T00:00:55.833Z,44.07
2018-03-23T00:03:24.113Z,38.97
2018-03-23T00:05:52.414Z,37.87
2018-03-23T00:08:20.724Z,48.10
2018-03-23T00:10:49.000Z,31.00
2018-03-23T00:13:41.047Z,41.80
2018-03-23T00:16:26.297Z,28.47
2018-03-23T00:18:54.572Z,36.50
2018-03-23T00:21:22.853Z,35.27
2018-03-23T00:23:51.147Z,33.93
2018-03-23T00:26:19.423Z,33.33
2018-03-23T00:28:47.720Z,38.90
2018-03-23T00:31:29.353Z,30.13
2018-03-23T00:33:57.632Z,42.83
2018-03-23T00:36:30.021Z,34.47
2018-03-23T00:38:58.341Z,35.37
2018-03-23T00:41:26.618Z,37.30
2018-03-23T00:44:02.452Z,44.30
2018-03-23T00:46:30.794Z,42.97
2018-03-23T00:48:59.041Z,36.07
2018-03-23T00:51:27.330Z,43.20
2018-03-23T00:53:55.612Z,34.17
2018-03-23T00:56:29.869Z,44.97
2018-03-23T00:58:58.160Z,44.43
2018-03-23T01:01:26.467Z,40.20
2018-03-23T01:03:54.747Z,41.93
2018-03-23T01:06:23.035Z,30.90
2018-03-23T01:08:57.133Z,31.03
2018-03-23T01:11:25.437Z,36.17
2018-03-23T01:13:53.713Z,35.07
2018-03-23T01:16:21.993Z,42.37
2018-03-23T01:18:50.289Z,32.83
2018-03-23T01:21:18.577Z,30.47
2018-03-23T01:23:46.878Z,33.20
2018-03-23T01:26:15.153Z,35.80
2018-03-23T01:28:43.449Z,28.93
2018-03-23T01:31:11.725Z,43.80
2018-03-23T01:33:40.020Z,33.23
2018-03-23T01:36:08.291Z,38.00
2018-03-23T01:38:36.568Z,46.03
2018-03-23T01:41:04.860Z,35.83
2018-03-23T01:43:33.148Z,39.07
2018-03-23T01:46:01.448Z,39.00
2018-03-23T01:48:29.727Z,42.60
2018-03-23T01:50:58.016Z,32.87
2018-03-23T01:53:38.205Z,40.03
2018-03-23T01:56:06.507Z,30.70
2018-03-23T01:58:34.785Z,35.73
2018-03-23T02:01:03.063Z,31.30
2018-03-23T02:03:31.369Z,28.17
2018-03-23T02:05:59.645Z,46.10
2018-03-23T02:08:27.932Z,41.50
2018-03-23T02:10:56.222Z,36.90
2018-03-23T02:13:24.500Z,42.93
2018-03-23T02:15:52.785Z,32.97
2018-03-23T02:18:21.079Z,36.47
2018-03-23T02:20:49.355Z,37.83
2018-03-23T02:23:17.632Z,41.13
2018-03-23T02:25:45.920Z,32.53
2018-03-23T02:28:14.196Z,29.07
2018-03-23T02:30:44.492Z,35.13
2018-03-23T02:33:12.773Z,33.10
2018-03-23T02:35:41.068Z,35.83
2018-03-23T02:38:09.349Z,30.97
2018-03-23T02:40:37.636Z,29.70
2018-03-23T02:43:05.958Z,38.37
2018-03-23T02:45:34.215Z,40.17
2018-03-23T02:48:02.503Z,38.63
2018-03-23T02:50:30.784Z,30.27
2018-03-23T02:52:59.083Z,30.63
2018-03-23T02:55:27.368Z,35.00
2018-03-23T02:57:55.645Z,35.20
2018-03-23T03:00:23.940Z,44.23
2018-03-23T03:06:15.765Z,35.93
2018-03-23T03:08:44.081Z,37.50
2018-03-23T03:11:12.342Z,35.93
2018-03-23T03:13:40.621Z,33.60
2018-03-23T03:16:08.909Z,35.57
2018-03-23T03:18:37.184Z,34.63
2018-03-23T03:21:05.464Z,37.37
2018-03-23T03:23:33.746Z,40.67
2018-03-23T03:26:02.053Z,35.00
2018-03-23T03:28:30.324Z,27.17
2018-03-23T03:30:59.539Z,26.17
2018-03-23T03:33:27.828Z,27.40
2018-03-23T03:35:56.092Z,26.73
2018-03-23T03:38:24.380Z,35.37
2018-03-23T03:40:52.660Z,27.00
2018-03-23T03:43:20.949Z,30.43
2018-03-23T03:45:49.230Z,35.23
2018-03-23T03:48:17.512Z,33.13
2018-03-23T03:50:45.789Z,23.90
2018-03-23T03:53:14.064Z,31.20
2018-03-23T03:55:42.356Z,40.77
2018-03-23T03:58:10.635Z,28.37
2018-03-23T04:00:38.935Z,33.77
2018-03-23T04:03:07.208Z,23.97
2018-03-23T04:05:35.500Z,33.27
2018-03-23T04:08:03.792Z,37.13
2018-03-23T04:10:32.083Z,38.50
2018-03-23T04:13:00.358Z,42.67
2018-03-23T04:15:28.648Z,43.60
2018-03-23T04:17:56.933Z,35.47
2018-03-23T04:20:25.220Z,45.97
2018-03-23T04:22:53.523Z,36.80
2018-03-23T04:25:21.796Z,31.73
2018-03-23T04:27:50.150Z,34.87
2018-03-23T04:30:18.369Z,36.13
2018-03-23T04:32:46.676Z,35.23
2018-03-23T04:35:14.958Z,30.93
2018-03-23T04:37:43.240Z,30.97
2018-03-23T04:40:11.524Z,32.93
2018-03-23T04:42:39.799Z,35.63
2018-03-23T04:45:08.092Z,29.87
2018-03-23T04:47:36.368Z,26.33
2018-03-23T04:50:04.662Z,32.10
2018-03-23T04:52:32.946Z,32.87
2018-03-23T04:55:01.256Z,29.27
2018-03-23T04:57:43.352Z,27.17
2018-03-23T05:00:11.644Z,26.57
2018-03-23T05:02:39.932Z,23.97
2018-03-23T05:05:08.208Z,26.93
2018-03-23T05:07:36.504Z,24.50
2018-03-23T05:10:04.779Z,25.60
2018-03-23T05:12:33.064Z,35.97
2018-03-23T05:15:01.340Z,26.80
2018-03-23T05:17:29.640Z,23.83
2018-03-23T05:19:57.924Z,26.17
2018-03-23T05:22:26.220Z,31.83
2018-03-23T05:25:20.389Z,32.63
2018-03-23T05:27:48.680Z,27.50
2018-03-23T05:30:16.957Z,30.77
2018-03-23T05:32:45.232Z,31.97
2018-03-23T05:35:13.524Z,32.47
2018-03-23T05:37:41.816Z,31.93
2018-03-23T05:40:10.108Z,27.57
2018-03-23T05:42:38.388Z,32.27
2018-03-23T05:45:06.700Z,27.63
2018-03-23T05:47:34.980Z,29.33
2018-03-23T05:50:03.265Z,23.40
2018-03-23T05:52:31.544Z,24.90
2018-03-23T05:55:00.656Z,27.90
2018-03-23T05:57:28.948Z,29.97
2018-03-23T05:59:57.239Z,35.83
2018-03-23T06:02:25.516Z,33.27
2018-03-23T06:04:53.792Z,32.23
2018-03-23T06:07:22.081Z,32.53
2018-03-23T06:09:50.357Z,32.83
2018-03-23T06:12:18.655Z,28.57
2018-03-23T06:14:46.996Z,36.10
2018-03-23T06:17:15.294Z,32.63
2018-03-23T06:19:43.580Z,35.10
2018-03-23T06:22:11.856Z,28.83
2018-03-23T06:24:40.149Z,34.23
2018-03-23T06:27:08.436Z,32.23
2018-03-23T06:29:36.732Z,24.93
2018-03-23T06:32:05.021Z,24.77
2018-03-23T06:34:33.308Z,30.20
2018-03-23T06:37:01.589Z,31.00
2018-03-23T06:39:29.896Z,30.17
2018-03-23T06:41:58.179Z,30.00
2018-03-23T06:44:26.457Z,30.47
2018-03-23T06:46:55.053Z,30.07
2018-03-23T06:49:23.325Z,25.07
2018-03-23T06:51:51.611Z,27.37
2018-03-23T06:54:19.888Z,26.03
2018-03-23T06:56:48.184Z,25.83
2018-03-23T06:59:16.468Z,26.57
2018-03-23T07:01:44.758Z,26.73
2018-03-23T07:04:13.041Z,33.73
2018-03-23T07:06:41.328Z,25.50
2018-03-23T07:09:09.624Z,28.33
2018-03-23T07:11:37.912Z,28.80
2018-03-23T07:14:06.209Z,39.73
2018-03-23T07:16:34.497Z,33.20
2018-03-23T07:19:02.819Z,31.07
2018-03-23T07:21:34.544Z,32.50
2018-03-23T07:24:02.844Z,32.37
2018-03-23T07:26:31.128Z,33.60
2018-03-23T07:28:59.408Z,39.83
2018-03-23T07:31:27.696Z,29.87
2018-03-23T07:33:55.980Z,22.83
2018-03-23T07:36:26.236Z,28.57
2018-03-23T07:38:59.854Z,29.43
2018-03-23T07:44:28.083Z,28.87
2018-03-23T07:50:06.278Z,31.20
2018-03-23T07:52:34.564Z,31.07
2018-03-23T07:55:02.840Z,28.60
2018-03-23T07:57:33.176Z,28.37
2018-03-23T08:00:01.460Z,27.37
2018-03-23T08:02:33.716Z,29.33
2018-03-23T08:05:02.009Z,23.77
2018-03-23T08:07:30.287Z,24.83
2018-03-23T08:09:58.564Z,20.43
2018-03-23T08:12:26.952Z,23.17
2018-03-23T08:14:55.232Z,28.90
2018-03-23T08:17:44.589Z,29.70
2018-03-23T08:20:12.876Z,30.60
2018-03-23T08:22:41.224Z,29.73
2018-03-23T08:25:09.506Z,23.63
2018-03-23T08:27:37.773Z,27.50
2018-03-23T08:30:17.668Z,27.53
2018-03-23T08:32:45.908Z,27.63
2018-03-23T08:35:16.176Z,26.97
2018-03-23T08:37:44.474Z,25.77
2018-03-23T08:40:12.752Z,29.67
2018-03-23T08:42:41.048Z,32.30
2018-03-23T08:45:09.337Z,31.33
2018-03-23T08:47:37.633Z,26.37
2018-03-23T08:50:05.915Z,24.57
2018-03-23T08:52:34.216Z,23.63
2018-03-23T08:55:02.509Z,26.20
2018-03-23T08:57:30.788Z,25.20
2018-03-23T08:59:59.088Z,23.70
2018-03-23T09:02:27.378Z,25.07
2018-03-23T09:05:01.344Z,25.27
2018-03-23T09:07:29.635Z,23.57
2018-03-23T09:09:59.912Z,22.60
2018-03-23T09:12:35.849Z,22.67
2018-03-23T09:15:04.149Z,21.57
2018-03-23T09:17:33.382Z,19.97
2018-03-23T09:20:12.524Z,16.43
2018-03-23T09:22:40.940Z,18.03
2018-03-23T09:25:14.236Z,18.43
2018-03-23T09:27:42.549Z,18.97
2018-03-23T09:30:16.729Z,16.63
2018-03-23T09:32:52.792Z,15.90
2018-03-23T09:35:21.108Z,16.10
2018-03-23T09:37:49.400Z,18.43
2018-03-23T09:40:17.681Z,16.17
2018-03-23T09:42:45.981Z,17.90
2018-03-23T09:45:14.252Z,14.57
2018-03-23T09:47:42.600Z,17.27
2018-03-23T09:50:10.887Z,16.63
2018-03-23T09:52:46.882Z,17.87
2018-03-23T09:55:18.868Z,18.03
2018-03-23T09:57:47.168Z,20.13
2018-03-23T10:00:16.379Z,18.40
2018-03-23T10:03:06.098Z,18.80
2018-03-23T10:05:44.861Z,18.70
2018-03-23T10:08:13.150Z,15.70
2018-03-23T10:10:49.214Z,18.87
2018-03-23T10:13:24.703Z,18.57
2018-03-23T10:15:52.987Z,19.50
2018-03-23T10:18:21.269Z,18.40
2018-03-23T10:20:49.617Z,17.57
2018-03-23T10:23:25.420Z,18.17
2018-03-23T10:25:53.716Z,19.00
2018-03-23T10:28:23.005Z,15.80
2018-03-23T10:30:51.320Z,16.67
2018-03-23T10:33:21.588Z,15.70
2018-03-23T10:35:49.903Z,18.13
2018-03-23T10:38:18.195Z,17.03
2018-03-23T10:40:46.488Z,16.63
2018-03-23T10:43:14.781Z,16.70
2018-03-23T10:45:43.103Z,14.53
2018-03-23T10:48:11.344Z,15.83
2018-03-23T10:50:39.650Z,15.97
2018-03-23T10:53:07.964Z,16.13
2018-03-23T10:55:36.243Z,15.93
2018-03-23T10:58:06.472Z,16.27
2018-03-23T11:00:40.285Z,18.73
2018-03-23T11:03:08.588Z,17.77
2018-03-23T11:05:36.866Z,13.03
2018-03-23T11:08:07.156Z,20.73
2018-03-23T11:10:35.451Z,17.87
2018-03-23T11:13:03.736Z,20.60
2018-03-23T11:15:32.032Z,18.93
2018-03-23T11:18:00.320Z,17.93
2018-03-23T11:20:28.608Z,14.00
2018-03-23T11:22:56.920Z,14.77
2018-03-23T11:25:25.222Z,13.10
2018-03-23T11:27:53.485Z,11.33
2018-03-23T11:30:21.757Z,14.43
2018-03-23T11:32:55.893Z,13.10
2018-03-23T11:35:24.168Z,16.37
2018-03-23T11:37:52.494Z,14.47
2018-03-23T11:40:20.748Z,15.03
2018-03-23T11:42:49.036Z,14.13
2018-03-23T11:45:17.320Z,12.47
2018-03-23T11:47:45.618Z,12.83
2018-03-23T11:50:14.122Z,11.57
2018-03-23T11:52:42.595Z,16.23
2018-03-23T11:55:10.937Z,14.60
2018-03-23T11:57:45.362Z,13.00
2018-03-23T12:00:13.684Z,11.77
2018-03-23T12:02:41.952Z,11.60
2018-03-23T12:08:06.658Z,12.67
2018-03-23T12:10:36.097Z,13.33
2018-03-23T12:13:04.584Z,13.60
2018-03-23T12:15:33.193Z,14.77
2018-03-23T12:18:02.601Z,13.87
2018-03-23T12:20:32.024Z,12.70
2018-03-23T12:23:23.964Z,12.13
2018-03-23T12:25:52.479Z,13.53
2018-03-23T12:28:21.958Z,14.10
2018-03-23T12:30:50.552Z,15.60
2018-03-23T12:33:20.130Z,16.23
2018-03-23T12:35:50.554Z,19.70
2018-03-23T12:38:26.139Z,18.27
2018-03-23T12:40:54.532Z,16.57
2018-03-23T12:43:22.931Z,13.57
2018-03-23T12:45:51.466Z,13.00
2018-03-23T12:48:19.991Z,10.80
2018-03-23T12:50:49.392Z,12.33
2018-03-23T12:53:19.693Z,11.97
2018-03-23T12:55:47.982Z,11.17
2018-03-23T12:58:16.264Z,9.37
2018-03-23T13:00:46.494Z,12.33
2018-03-23T13:03:14.760Z,9.73
2018-03-23T13:05:44.040Z,11.10
2018-03-23T13:11:12.135Z,9.80
2018-03-23T13:13:41.320Z,9.17
2018-03-23T13:16:09.608Z,10.93
2018-03-23T13:18:52.138Z,9.77
2018-03-23T13:21:21.426Z,10.70
2018-03-23T13:23:54.334Z,10.37
2018-03-23T13:26:22.620Z,11.43
2018-03-23T13:28:50.964Z,13.97
2018-03-23T13:31:19.243Z,11.70
2018-03-23T13:33:52.949Z,10.43
2018-03-23T13:36:21.311Z,13.43
2018-03-23T13:38:50.550Z,11.80
2018-03-23T13:41:18.828Z,11.40
2018-03-23T13:43:47.117Z,13.37
2018-03-23T13:46:15.400Z,12.40
2018-03-23T13:48:43.698Z,13.60
2018-03-23T13:51:11.999Z,16.00
2018-03-23T13:56:33.996Z,16.17
2018-03-23T13:59:08.320Z,17.57
2018-03-23T14:01:41.454Z,17.60
2018-03-23T14:04:09.736Z,14.97
2018-03-23T14:06:38.012Z,17.53
2018-03-23T14:09:06.307Z,14.97
2018-03-23T14:11:34.640Z,16.43
2018-03-23T14:17:08.601Z,15.70
2018-03-23T14:19:38.834Z,14.10
2018-03-23T14:22:07.128Z,13.77
2018-03-23T14:24:35.417Z,13.20
2018-03-23T14:27:21.804Z,14.87
2018-03-23T14:29:53.285Z,11.37
2018-03-23T14:32:32.929Z,12.27
2018-03-23T14:35:11.863Z,10.10
2018-03-23T14:37:41.120Z,11.80
2018-03-23T14:40:15.422Z,13.93
2018-03-23T14:42:50.356Z,14.10
2018-03-23T14:45:21.737Z,14.37
2018-03-23T14:47:56.449Z,13.30
2018-03-23T14:50:24.720Z,14.50
2018-03-23T14:52:59.389Z,15.27
2018-03-23T14:55:27.676Z,12.97
2018-03-23T14:57:55.960Z,11.27
2018-03-23T15:00:24.228Z,10.90
2018-03-23T15:02:53.429Z,9.00
2018-03-23T15:05:21.829Z,6.93
2018-03-23T15:07:54.968Z,8.50
2018-03-23T15:10:34.208Z,9.13
2018-03-23T15:13:02.449Z,7.70
2018-03-23T15:15:35.039Z,8.43
2018-03-23T15:18:05.222Z,7.33
2018-03-23T15:20:33.506Z,9.87
2018-03-23T15:23:01.769Z,8.03
2018-03-23T15:25:30.035Z,6.83
2018-03-23T15:28:23.315Z,8.80
2018-03-23T15:31:01.973Z,7.37
2018-03-23T15:33:34.295Z,8.03
2018-03-23T15:36:04.590Z,7.27
2018-03-23T15:38:45.684Z,6.60
2018-03-23T15:41:20.856Z,7.87
2018-03-23T15:43:49.125Z,9.23
2018-03-23T15:46:17.414Z,8.77
2018-03-23T15:48:51.274Z,10.27
2018-03-23T15:54:19.081Z,6.53
2018-03-23T15:56:52.683Z,6.00
2018-03-23T15:59:20.956Z,8.60
2018-03-23T16:04:45.480Z,9.37
2018-03-23T16:07:13.704Z,11.27
2018-03-23T16:09:42.062Z,14.17
2018-03-23T16:12:21.499Z,13.27
2018-03-23T16:15:13.131Z,11.23
2018-03-23T16:17:53.822Z,10.17
2018-03-23T16:20:26.071Z,12.83
2018-03-23T16:22:54.328Z,17.57
2018-03-23T16:25:37.076Z,13.53
2018-03-23T16:28:09.536Z,12.20
2018-03-23T16:30:42.156Z,11.80
2018-03-23T16:36:08.972Z,10.40
2018-03-23T16:38:52.479Z,11.00
2018-03-23T16:41:20.820Z,14.70
2018-03-23T16:43:49.111Z,14.23
2018-03-23T16:46:41.689Z,14.40
2018-03-23T16:49:09.956Z,12.73
2018-03-23T16:51:38.292Z,13.73
2018-03-23T16:54:06.574Z,12.30
2018-03-23T16:56:35.822Z,17.30
2018-03-23T16:59:05.062Z,13.87
2018-03-23T17:01:56.162Z,13.97
2018-03-23T17:04:24.464Z,11.57
2018-03-23T17:06:56.919Z,13.80
2018-03-23T17:09:25.238Z,15.77
2018-03-23T17:11:59.494Z,16.00
2018-03-23T17:14:29.756Z,17.37
2018-03-23T17:16:58.424Z,15.80
2018-03-23T17:19:28.700Z,15.43
2018-03-23T17:22:07.591Z,16.17
2018-03-23T17:27:52.679Z,15.83
2018-03-23T17:30:20.975Z,13.60
2018-03-23T17:32:49.280Z,15.13
2018-03-23T17:35:25.712Z,14.40
2018-03-23T17:38:04.385Z,13.50
2018-03-23T17:40:41.178Z,13.53
2018-03-23T17:43:09.549Z,15.60
2018-03-23T17:45:43.024Z,15.53
2018-03-23T17:48:12.269Z,16.43
2018-03-23T17:50:49.127Z,14.30
2018-03-23T17:53:28.165Z,15.83
2018-03-23T17:56:13.577Z,13.53
2018-03-23T17:58:41.916Z,13.30
2018-03-23T18:01:11.235Z,15.73
2018-03-23T18:03:39.578Z,17.03
2018-03-23T18:06:07.898Z,16.57
2018-03-23T18:08:37.095Z,17.13
2018-03-23T18:11:05.364Z,16.87
2018-03-23T18:16:33.213Z,14.90
2018-03-23T18:19:06.261Z,16.70
2018-03-23T18:21:42.904Z,14.87
2018-03-23T18:24:12.184Z,17.43
2018-03-23T18:26:40.467Z,15.97
2018-03-23T18:29:08.752Z,18.70
2018-03-23T18:31:37.724Z,15.07
2018-03-23T18:34:06.956Z,15.53
2018-03-23T18:36:35.228Z,13.57
2018-03-23T18:39:04.472Z,18.53
2018-03-23T18:41:36.997Z,18.40
2018-03-23T18:44:05.260Z,16.60
2018-03-23T18:46:33.542Z,17.43
2018-03-23T18:52:00.049Z,16.47
2018-03-23T18:54:28.308Z,14.37
2018-03-23T18:56:56.603Z,15.77
2018-03-23T18:59:24.880Z,18.63
2018-03-23T19:01:53.152Z,16.87
2018-03-23T19:04:21.428Z,15.30
2018-03-23T19:06:57.085Z,15.30
2018-03-23T19:09:25.361Z,17.37
2018-03-23T19:11:53.690Z,18.00
2018-03-23T19:14:28.091Z,17.70
2018-03-23T19:17:00.206Z,16.73
2018-03-23T19:19:31.988Z,16.77
2018-03-23T19:22:14.981Z,16.37
2018-03-23T19:24:43.269Z,18.73
2018-03-23T19:27:11.541Z,17.20
2018-03-23T19:29:39.799Z,19.97
2018-03-23T19:32:08.092Z,17.77
2018-03-23T19:34:53.324Z,15.73
2018-03-23T19:37:26.057Z,17.87
2018-03-23T19:39:54.328Z,16.70
2018-03-23T19:42:26.108Z,16.13
2018-03-23T19:44:58.216Z,17.57
2018-03-23T19:50:26.419Z,27.83
2018-03-23T19:52:54.710Z,19.20
2018-03-23T19:58:16.692Z,21.93
2018-03-23T20:00:45.212Z,20.07
2018-03-23T20:03:15.527Z,17.90
2018-03-23T20:05:43.801Z,17.27
2018-03-23T20:08:12.093Z,19.33
2018-03-23T20:10:40.378Z,17.13
2018-03-23T20:13:08.656Z,18.30
2018-03-23T20:15:36.971Z,19.90
2018-03-23T20:18:12.030Z,17.27
2018-03-23T20:20:47.118Z,18.40
2018-03-23T20:23:15.515Z,18.47
2018-03-23T20:25:43.954Z,20.40
2018-03-23T20:28:17.990Z,20.17
2018-03-23T20:30:46.289Z,19.63
2018-03-23T20:33:14.570Z,20.70
2018-03-23T20:35:42.850Z,18.80
2018-03-23T20:38:11.289Z,20.83
2018-03-23T20:40:39.564Z,20.57
2018-03-23T20:43:07.995Z,19.80
2018-03-23T20:45:36.290Z,19.33
2018-03-23T20:48:04.776Z,19.23
2018-03-23T20:50:33.166Z,21.30
2018-03-23T20:53:01.561Z,18.50
2018-03-23T20:55:29.828Z,20.00
2018-03-23T20:57:58.524Z,25.03
2018-03-23T21:00:26.984Z,19.10
2018-03-23T21:02:55.365Z,17.07
2018-03-23T21:05:23.802Z,21.63
2018-03-23T21:07:52.294Z,20.80
2018-03-23T21:10:20.654Z,19.50
2018-03-23T21:12:52.065Z,17.03
2018-03-23T21:15:20.430Z,15.93
2018-03-23T21:17:48.766Z,16.50
2018-03-23T21:20:17.128Z,17.63
2018-03-23T21:22:45.573Z,15.60
2018-03-23T21:25:13.947Z,17.40
2018-03-23T21:27:42.420Z,16.40
2018-03-23T21:30:10.667Z,14.33
2018-03-23T21:32:38.947Z,17.50
2018-03-23T21:35:07.220Z,14.47
2018-03-23T21:37:35.662Z,15.27
2018-03-23T21:40:04.080Z,15.73
2018-03-23T21:42:32.419Z,15.67
2018-03-23T21:45:00.813Z,15.73
2018-03-23T21:47:29.261Z,15.53
2018-03-23T21:49:58.342Z,16.87
2018-03-23T21:52:26.638Z,16.73
2018-03-23T21:54:55.107Z,17.70
2018-03-23T21:57:23.606Z,14.63
2018-03-23T21:59:51.936Z,14.27
2018-03-23T22:02:20.336Z,13.13
2018-03-23T22:04:48.742Z,13.73
2018-03-23T22:07:17.201Z,14.27
2018-03-23T22:09:45.635Z,14.13
2018-03-23T22:12:14.047Z,16.13
2018-03-23T22:14:42.379Z,16.60
2018-03-23T22:17:10.831Z,18.03
2018-03-23T22:19:39.133Z,17.67
2018-03-23T22:22:07.510Z,16.97
2018-03-23T22:24:35.769Z,19.10
2018-03-23T22:27:04.066Z,19.87
2018-03-23T22:29:32.344Z,18.73
2018-03-23T22:32:00.626Z,21.53
2018-03-23T22:34:28.908Z,18.57
2018-03-23T22:36:57.196Z,18.80
2018-03-23T22:39:25.499Z,17.23
2018-03-23T22:41:53.772Z,21.23
2018-03-23T22:44:29.272Z,17.20
2018-03-23T22:46:57.572Z,20.07
2018-03-23T22:49:25.878Z,16.77
2018-03-23T22:51:54.147Z,20.53
2018-03-23T22:54:43.406Z,19.23
2018-03-23T22:57:11.683Z,19.20
2018-03-23T22:59:39.959Z,20.50
2018-03-23T23:02:08.240Z,20.40
2018-03-23T23:04:36.521Z,19.93
2018-03-23T23:07:04.804Z,27.33
2018-03-23T23:09:45.428Z,20.07
2018-03-23T23:12:13.712Z,18.00
2018-03-23T23:14:41.988Z,22.40
2018-03-23T23:17:10.265Z,21.67
2018-03-23T23:19:38.548Z,19.67
2018-03-23T23:22:06.851Z,23.40
2018-03-23T23:24:35.116Z,16.87
2018-03-23T23:27:03.417Z,16.47
2018-03-23T23:29:31.693Z,17.67
2018-03-23T23:31:59.960Z,16.80
2018-03-23T23:34:28.256Z,21.03
2018-03-23T23:36:56.528Z,18.90
2018-03-23T23:39:24.808Z,19.53
2018-03-23T23:41:53.081Z,17.57
2018-03-23T23:44:21.356Z,17.83
2018-03-23T23:46:49.631Z,21.30
2018-03-23T23:49:17.919Z,20.53
2018-03-23T23:51:46.196Z,18.03
2018-03-23T23:54:14.468Z,17.87
2018-03-23T23:56:42.758Z,17.00
2018-03-23T23:59:11.020Z,17.63
